createdAt,value
2018-05-03T04:33:06.297Z,6.50
2018-05-03T04:35:38.187Z,7.20
2018-05-03T04:38:10.825Z,6.00
2018-05-03T04:40:42.721Z,5.87
2018-05-03T04:43:14.585Z,6.17
2018-05-03T04:45:46.483Z,6.40
2018-05-03T04:48:19.120Z,6.43
2018-05-03T04:50:50.996Z,5.63
2018-05-03T04:53:22.869Z,5.30
2018-05-03T04:55:55.774Z,5.67
2018-05-03T04:58:27.942Z,5.87
2018-05-03T05:01:00.118Z,5.40
2018-05-03T05:03:31.985Z,5.63
2018-05-03T05:06:03.873Z,5.63
2018-05-03T05:08:35.749Z,4.70
2018-05-03T05:11:07.648Z,4.70
2018-05-03T05:13:40.318Z,4.20
2018-05-03T05:16:12.206Z,3.80
2018-05-03T05:18:44.147Z,3.93
2018-05-03T05:21:16.790Z,4.23
2018-05-03T05:23:48.659Z,4.03
2018-05-03T05:26:20.556Z,4.37
2018-05-03T05:28:52.418Z,3.87
2018-05-03T05:31:24.578Z,4.23
2018-05-03T05:33:56.446Z,4.20
2018-05-03T05:36:28.330Z,3.80
2018-05-03T05:39:00.549Z,3.73
2018-05-03T05:41:32.345Z,3.80
2018-05-03T05:44:04.249Z,4.33
2018-05-03T05:46:36.138Z,4.17
2018-05-03T05:49:08.013Z,3.70
2018-05-03T05:51:40.167Z,3.93
2018-05-03T05:54:12.046Z,4.03
2018-05-03T05:56:44.269Z,4.27
2018-05-03T05:59:16.073Z,5.67
2018-05-03T06:01:47.957Z,4.17
2018-05-03T06:04:19.875Z,4.23
2018-05-03T06:06:51.755Z,3.83
2018-05-03T06:09:23.904Z,4.37
2018-05-03T06:11:55.785Z,3.97
2018-05-03T06:14:27.680Z,4.17
2018-05-03T06:16:59.889Z,4.40
2018-05-03T06:19:31.763Z,3.97
2018-05-03T06:22:03.650Z,3.50
2018-05-03T06:24:35.529Z,4.10
2018-05-03T06:27:07.413Z,4.60
2018-05-03T06:29:40.048Z,4.67
2018-05-03T06:32:11.933Z,5.03
2018-05-03T06:34:43.869Z,5.50
2018-05-03T06:37:15.758Z,4.70
2018-05-03T06:39:47.629Z,4.93
2018-05-03T06:42:20.278Z,4.60
2018-05-03T06:44:52.162Z,4.73
2018-05-03T06:47:24.058Z,4.50
2018-05-03T06:49:55.934Z,4.30
2018-05-03T06:52:28.075Z,4.40
2018-05-03T06:54:59.949Z,4.25
2018-05-03T06:57:31.883Z,5.43
2018-05-03T07:00:04.518Z,4.73
2018-05-03T07:02:36.409Z,4.60
2018-05-03T07:05:08.298Z,4.62
2018-05-03T07:07:40.414Z,4.93
2018-05-03T07:10:12.286Z,4.07
2018-05-03T07:12:44.182Z,4.30
2018-05-03T07:15:16.090Z,3.80
2018-05-03T07:17:47.984Z,4.07
2018-05-03T07:20:20.638Z,4.60
2018-05-03T07:22:52.529Z,4.62
2018-05-03T07:25:25.177Z,4.28
2018-05-03T07:27:57.065Z,4.30
2018-05-03T07:30:29.717Z,4.07
2018-05-03T07:33:01.718Z,4.47
2018-05-03T07:35:34.358Z,3.90
2018-05-03T07:38:06.302Z,4.30
2018-05-03T07:40:38.265Z,4.70
2018-05-03T07:43:10.861Z,5.27
2018-05-03T07:45:43.865Z,5.13
2018-05-03T07:48:16.763Z,5.63
2018-05-03T07:50:49.397Z,4.77
2018-05-03T07:53:21.305Z,4.43
2018-05-03T07:55:54.196Z,4.43
2018-05-03T07:58:26.077Z,4.23
2018-05-03T08:00:58.011Z,4.80
2018-05-03T08:03:30.680Z,4.53
2018-05-03T08:06:03.319Z,4.63
2018-05-03T08:08:35.224Z,4.80
2018-05-03T08:11:07.862Z,4.60
2018-05-03T08:13:40.075Z,4.90
2018-05-03T08:16:11.949Z,4.30
2018-05-03T08:18:44.103Z,3.90
2018-05-03T08:21:16.267Z,3.83
2018-05-03T08:23:48.278Z,4.23
2018-05-03T08:26:20.866Z,4.10
2018-05-03T08:28:52.768Z,3.20
2018-05-03T08:31:25.657Z,3.80
2018-05-03T08:33:57.556Z,4.20
2018-05-03T08:36:29.523Z,3.53
2018-05-03T08:39:01.482Z,3.90
2018-05-03T08:41:33.397Z,4.10
2018-05-03T08:44:05.406Z,4.80
2018-05-03T08:46:37.370Z,4.83
2018-05-03T08:49:09.489Z,5.03
2018-05-03T08:51:41.408Z,4.83
2018-05-03T08:54:13.309Z,5.50
2018-05-03T08:56:45.182Z,5.60
2018-05-03T08:59:17.192Z,5.70
2018-05-03T09:01:49.343Z,4.83
2018-05-03T09:04:21.468Z,4.80
2018-05-03T09:06:53.637Z,5.30
2018-05-03T09:09:25.637Z,4.90
2018-05-03T09:11:58.346Z,4.23
2018-05-03T09:14:30.281Z,4.20
2018-05-03T09:17:02.250Z,3.70
2018-05-03T09:19:34.162Z,3.50
2018-05-03T09:22:06.042Z,3.90
2018-05-03T09:24:38.185Z,3.60
2018-05-03T09:27:10.357Z,4.20
2018-05-03T09:29:42.259Z,5.00
2018-05-03T09:32:14.125Z,4.40
2018-05-03T09:34:46.034Z,4.33
2018-05-03T09:37:18.671Z,3.80
2018-05-03T09:39:50.578Z,4.20
2018-05-03T09:42:22.466Z,4.10
2018-05-03T09:44:54.374Z,3.97
2018-05-03T09:47:27.285Z,3.47
2018-05-03T09:49:59.406Z,4.20
2018-05-03T09:52:31.384Z,4.10
2018-05-03T09:55:03.207Z,3.07
2018-05-03T09:57:35.337Z,3.67
2018-05-03T10:00:07.229Z,3.20
2018-05-03T10:02:39.105Z,2.97
2018-05-03T10:05:11.030Z,3.53
2018-05-03T10:07:42.910Z,3.67
2018-05-03T10:10:15.041Z,3.23
2018-05-03T10:12:47.202Z,2.90
2018-05-03T10:15:19.113Z,3.23
2018-05-03T10:17:50.991Z,3.00
2018-05-03T10:20:22.904Z,3.23
2018-05-03T10:22:54.794Z,2.57
2018-05-03T10:25:26.686Z,2.73
2018-05-03T10:27:59.337Z,3.60
2018-05-03T10:30:31.243Z,3.50
2018-05-03T10:33:03.127Z,3.27
2018-05-03T10:35:35.275Z,3.30
2018-05-03T10:38:07.484Z,3.37
2018-05-03T10:40:39.481Z,2.90
2018-05-03T10:43:12.133Z,3.20
2018-05-03T10:45:44.049Z,3.37
2018-05-03T10:48:15.918Z,3.10
2018-05-03T10:50:47.843Z,2.63
2018-05-03T10:53:19.704Z,2.60
2018-05-03T10:55:51.602Z,3.03
2018-05-03T10:58:23.493Z,3.33
2018-05-03T11:00:55.381Z,2.87
2018-05-03T11:03:28.187Z,3.07
2018-05-03T11:06:00.147Z,4.47
2018-05-03T11:08:32.039Z,2.70
2018-05-03T11:11:03.976Z,2.90
2018-05-03T11:13:36.594Z,2.60
2018-05-03T11:16:08.814Z,3.03
2018-05-03T11:18:40.697Z,2.43
2018-05-03T11:21:12.598Z,2.87
2018-05-03T11:23:44.474Z,2.73
2018-05-03T11:26:16.365Z,3.30
2018-05-03T11:28:48.237Z,2.80
2018-05-03T11:31:20.135Z,2.90
2018-05-03T11:33:52.019Z,3.00
2018-05-03T11:36:24.694Z,3.47
2018-05-03T11:38:57.337Z,3.27
2018-05-03T11:41:30.021Z,2.97
2018-05-03T11:44:01.898Z,3.17
2018-05-03T11:46:33.793Z,3.10
2018-05-03T11:49:05.701Z,3.60
2018-05-03T11:51:37.594Z,4.10
2018-05-03T11:54:10.241Z,2.87
2018-05-03T11:56:42.138Z,3.13
2018-05-03T11:59:14.835Z,3.83
2018-05-03T12:01:46.994Z,3.23
2018-05-03T12:04:19.167Z,3.93
2018-05-03T12:06:51.066Z,4.47
2018-05-03T12:09:23.192Z,4.00
2018-05-03T12:11:55.354Z,3.20
2018-05-03T12:14:27.231Z,3.47
2018-05-03T12:16:59.146Z,3.20
2018-05-03T12:19:31.038Z,3.80
2018-05-03T12:22:02.945Z,3.20
2018-05-03T12:24:34.810Z,3.17
2018-05-03T12:27:06.715Z,5.20
2018-05-03T12:29:38.600Z,4.23
2018-05-03T12:32:11.267Z,3.63
2018-05-03T12:34:43.146Z,3.73
2018-05-03T12:37:15.058Z,3.50
2018-05-03T12:39:47.698Z,3.40
2018-05-03T12:42:19.594Z,3.20
2018-05-03T12:44:52.499Z,2.93
2018-05-03T12:47:24.390Z,2.97
2018-05-03T12:49:56.268Z,3.57
2018-05-03T12:52:28.985Z,3.20
2018-05-03T12:55:01.631Z,3.60
2018-05-03T12:57:33.534Z,2.80
2018-05-03T13:00:06.181Z,2.40
2018-05-03T13:02:38.083Z,2.80
2018-05-03T13:05:09.951Z,2.93
2018-05-03T13:07:41.904Z,2.60
2018-05-03T13:10:13.867Z,2.63
2018-05-03T13:12:45.763Z,2.50
2018-05-03T13:15:17.633Z,2.57
2018-05-03T13:17:49.526Z,2.60
2018-05-03T13:20:22.425Z,2.60
2018-05-03T13:22:54.833Z,2.40
2018-05-03T13:25:26.759Z,2.40
2018-05-03T13:27:58.721Z,2.50
2018-05-03T13:30:30.598Z,2.90
2018-05-03T13:33:02.485Z,3.07
2018-05-03T13:35:34.361Z,3.43
2018-05-03T13:38:06.269Z,2.63
2018-05-03T13:40:38.136Z,2.70
2018-05-03T13:43:10.059Z,3.07
2018-05-03T13:45:41.909Z,2.93
2018-05-03T13:48:13.814Z,3.70
2018-05-03T13:50:45.684Z,2.90
2018-05-03T13:53:17.633Z,2.80
2018-05-03T13:55:49.485Z,3.20
2018-05-03T13:58:21.502Z,2.87
2018-05-03T14:00:53.809Z,3.00
2018-05-03T14:03:25.625Z,2.60
2018-05-03T14:05:57.498Z,3.07
2018-05-03T14:08:29.385Z,3.10
2018-05-03T14:11:02.031Z,3.43
2018-05-03T14:13:34.238Z,2.93
2018-05-03T14:16:06.110Z,3.17
2018-05-03T14:18:38.102Z,2.93
2018-05-03T14:21:10.068Z,2.93
2018-05-03T14:23:41.930Z,3.07
2018-05-03T14:26:13.807Z,3.30
2018-05-03T14:28:45.733Z,2.93
2018-05-03T14:31:17.869Z,3.23
2018-05-03T14:33:49.890Z,2.73
2018-05-03T14:36:21.770Z,3.07
2018-05-03T14:38:53.961Z,2.57
2018-05-03T14:41:25.831Z,2.83
2018-05-03T14:43:57.722Z,3.17
2018-05-03T14:46:29.590Z,2.70
2018-05-03T14:49:01.485Z,3.00
2018-05-03T14:51:34.118Z,2.97
2018-05-03T14:54:06.776Z,2.77
2018-05-03T14:56:38.922Z,2.83
2018-05-03T14:59:10.826Z,2.53
2018-05-03T15:01:42.697Z,2.77
2018-05-03T15:04:14.604Z,2.60
2018-05-03T15:06:47.237Z,2.97
2018-05-03T15:09:19.357Z,3.13
2018-05-03T15:11:51.225Z,2.90
2018-05-03T15:14:23.375Z,2.90
2018-05-03T15:16:55.237Z,3.07
2018-05-03T15:19:27.138Z,3.10
2018-05-03T15:21:59.257Z,3.17
2018-05-03T15:24:31.140Z,2.87
2018-05-03T15:27:02.997Z,2.60
2018-05-03T15:29:34.933Z,3.00
2018-05-03T15:32:07.825Z,2.83
2018-05-03T15:34:39.782Z,3.00
2018-05-03T15:37:12.421Z,2.90
2018-05-03T15:39:44.322Z,2.70
2018-05-03T15:42:16.283Z,3.10
2018-05-03T15:44:49.001Z,2.63
2018-05-03T15:47:20.962Z,3.27
2018-05-03T15:49:52.970Z,2.90
2018-05-03T15:52:24.858Z,2.80
2018-05-03T15:54:56.853Z,2.70
2018-05-03T15:57:28.731Z,2.60
2018-05-03T16:00:00.629Z,3.13
2018-05-03T16:02:32.505Z,2.77
2018-05-03T16:05:04.381Z,2.67
2018-05-03T16:07:36.256Z,2.50
2018-05-03T16:10:08.246Z,2.63
2018-05-03T16:12:41.027Z,2.57
2018-05-03T16:15:12.941Z,3.40
2018-05-03T16:17:44.809Z,2.90
2018-05-03T16:20:16.709Z,2.60
2018-05-03T16:22:48.581Z,3.00
2018-05-03T16:25:21.250Z,2.93
2018-05-03T16:27:53.113Z,3.20
2018-05-03T16:30:25.781Z,3.13
2018-05-03T16:32:57.657Z,2.93
2018-05-03T16:35:30.325Z,2.87
2018-05-03T16:38:03.234Z,3.00
2018-05-03T16:40:35.130Z,2.77
2018-05-03T16:43:07.006Z,2.80
2018-05-03T16:45:38.911Z,2.63
2018-05-03T16:48:11.798Z,2.97
2018-05-03T16:50:43.702Z,2.73
2018-05-03T16:53:15.825Z,2.70
2018-05-03T16:55:48.033Z,2.93
2018-05-03T16:58:20.669Z,2.90
2018-05-03T17:00:52.593Z,2.90
2018-05-03T17:03:24.468Z,3.10
2018-05-03T17:05:56.361Z,2.97
2018-05-03T17:08:28.230Z,2.80
2018-05-03T17:11:00.126Z,2.90
2018-05-03T17:13:31.999Z,3.17
2018-05-03T17:16:04.111Z,2.90
2018-05-03T17:18:36.266Z,2.87
2018-05-03T17:21:08.171Z,3.20
2018-05-03T17:23:40.058Z,2.70
2018-05-03T17:26:11.966Z,2.70
2018-05-03T17:28:43.841Z,2.80
2018-05-03T17:31:15.977Z,2.70
2018-05-03T17:33:47.894Z,3.43
2018-05-03T17:36:19.746Z,3.20
2018-05-03T17:38:51.866Z,2.90
2018-05-03T17:41:23.758Z,2.77
2018-05-03T17:43:55.886Z,2.50
2018-05-03T17:46:28.051Z,2.93
2018-05-03T17:48:59.943Z,2.73
2018-05-03T17:51:31.838Z,3.20
2018-05-03T17:54:03.733Z,3.07
2018-05-03T17:56:36.452Z,3.17
2018-05-03T17:59:08.321Z,2.90
2018-05-03T18:01:40.220Z,2.70
2018-05-03T18:04:12.858Z,2.90
2018-05-03T18:06:44.978Z,3.30
2018-05-03T18:09:16.877Z,2.93
2018-05-03T18:11:48.770Z,3.00
2018-05-03T18:14:20.642Z,2.90
2018-05-03T18:16:53.303Z,2.60
2018-05-03T18:19:25.173Z,2.73
2018-05-03T18:21:57.084Z,2.80
2018-05-03T18:24:29.186Z,3.10
2018-05-03T18:27:01.081Z,2.63
2018-05-03T18:29:32.952Z,2.77
2018-05-03T18:32:04.880Z,3.10
2018-05-03T18:34:36.764Z,3.17
2018-05-03T18:37:09.430Z,3.10
2018-05-03T18:39:42.079Z,3.03
2018-05-03T18:42:13.985Z,3.43
2018-05-03T18:44:45.878Z,3.30
2018-05-03T18:47:17.807Z,3.10
2018-05-03T18:49:49.749Z,3.47
2018-05-03T18:52:21.830Z,2.90
2018-05-03T18:54:53.701Z,3.60
2018-05-03T18:57:25.610Z,3.10
2018-05-03T18:59:57.473Z,3.33
2018-05-03T19:02:29.370Z,3.33
2018-05-03T19:05:01.253Z,3.47
2018-05-03T19:07:33.193Z,2.70
2018-05-03T19:10:05.038Z,3.30
2018-05-03T19:12:37.719Z,3.50
2018-05-03T19:15:10.349Z,3.27
2018-05-03T19:17:42.234Z,3.73
2018-05-03T19:20:14.117Z,3.60
2018-05-03T19:22:46.786Z,3.73
2018-05-03T19:25:19.690Z,3.20
2018-05-03T19:27:51.610Z,3.57
2018-05-03T19:30:23.496Z,3.53
2018-05-03T19:32:55.398Z,3.80
2018-05-03T19:35:27.558Z,3.60
2018-05-03T19:37:59.491Z,3.43
2018-05-03T19:40:32.127Z,3.23
2018-05-03T19:43:04.026Z,3.33
2018-05-03T19:45:36.662Z,3.30
2018-05-03T19:48:08.562Z,3.43
2018-05-03T19:50:41.206Z,3.10
2018-05-03T19:53:13.108Z,3.37
2018-05-03T19:55:45.750Z,3.20
2018-05-03T19:58:17.858Z,3.40
2018-05-03T20:00:49.730Z,3.10
2018-05-03T20:03:21.629Z,2.90
2018-05-03T20:05:53.503Z,3.30
2018-05-03T20:08:25.466Z,3.30
2018-05-03T20:10:57.290Z,3.03
2018-05-03T20:13:29.182Z,3.03
2018-05-03T20:16:01.054Z,3.47
2018-05-03T20:18:33.728Z,3.13
2018-05-03T20:21:05.593Z,3.30
2018-05-03T20:23:38.249Z,3.23
2018-05-03T20:26:10.127Z,3.40
2018-05-03T20:28:42.040Z,3.43
2018-05-03T20:31:13.910Z,3.67
2018-05-03T20:33:45.806Z,3.70
2018-05-03T20:36:17.686Z,3.33
2018-05-03T20:38:50.353Z,3.77
2018-05-03T20:41:22.990Z,3.67
2018-05-03T20:43:54.898Z,3.70
2018-05-03T20:46:27.802Z,3.30
2018-05-03T20:48:59.701Z,3.73
2018-05-03T20:51:31.578Z,3.20
2018-05-03T20:54:03.480Z,3.37
2018-05-03T20:56:35.455Z,3.40
2018-05-03T20:59:07.297Z,3.87
2018-05-03T21:01:39.168Z,4.33
2018-05-03T21:04:11.058Z,4.43
2018-05-03T21:06:42.934Z,4.13
2018-05-03T21:09:14.820Z,4.73
2018-05-03T21:11:47.721Z,4.60
2018-05-03T21:14:19.617Z,3.73
2018-05-03T21:16:51.485Z,4.40
2018-05-03T21:19:23.402Z,4.67
2018-05-03T21:21:55.273Z,4.63
2018-05-03T21:24:27.174Z,4.40
2018-05-03T21:26:59.054Z,4.00
2018-05-03T21:29:31.246Z,3.97
2018-05-03T21:32:03.128Z,3.70
2018-05-03T21:34:35.022Z,3.90
2018-05-03T21:37:07.134Z,4.17
2018-05-03T21:39:39.022Z,4.47
2018-05-03T21:42:10.890Z,3.90
2018-05-03T21:44:42.774Z,3.50
2018-05-03T21:47:14.654Z,4.20
2018-05-03T21:49:47.302Z,4.40
2018-05-03T21:52:19.420Z,4.43
2018-05-03T21:54:51.334Z,4.17
2018-05-03T21:57:23.209Z,3.80
2018-05-03T21:59:55.407Z,4.53
2018-05-03T22:02:27.368Z,4.10
2018-05-03T22:04:59.293Z,4.00
2018-05-03T22:07:31.182Z,4.87
2018-05-03T22:10:03.926Z,4.30
2018-05-03T22:12:36.044Z,4.67
2018-05-03T22:15:07.938Z,4.87
2018-05-03T22:17:40.059Z,4.40
2018-05-03T22:20:12.178Z,4.40
2018-05-03T22:22:44.049Z,4.90
2018-05-03T22:25:15.962Z,4.47
2018-05-03T22:27:47.829Z,4.33
2018-05-03T22:30:19.973Z,4.00
2018-05-03T22:32:51.853Z,4.47
2018-05-03T22:35:23.998Z,4.57
2018-05-03T22:37:55.877Z,4.37
2018-05-03T22:40:27.775Z,4.43
2018-05-03T22:42:59.713Z,4.57
2018-05-03T22:45:31.609Z,4.30
2018-05-03T22:48:03.806Z,4.57
2018-05-03T22:50:35.706Z,4.73
2018-05-03T22:53:07.586Z,3.83
2018-05-03T22:55:39.474Z,5.03
2018-05-03T22:58:12.125Z,4.60
2018-05-03T23:00:44.026Z,4.60
2018-05-03T23:03:15.897Z,4.70
2018-05-03T23:05:48.051Z,4.20
2018-05-03T23:08:19.936Z,4.67
2018-05-03T23:10:51.837Z,5.17
2018-05-03T23:13:23.943Z,5.37
2018-05-03T23:15:55.832Z,4.80
2018-05-03T23:18:27.702Z,5.00
2018-05-03T23:20:59.894Z,4.80
2018-05-03T23:23:31.989Z,4.70
2018-05-03T23:26:03.888Z,5.03
2018-05-03T23:28:35.766Z,5.50
2018-05-03T23:31:07.662Z,4.80
2018-05-03T23:33:40.290Z,4.70
2018-05-03T23:36:12.175Z,5.37
2018-05-03T23:38:44.273Z,5.17
2018-05-03T23:41:16.439Z,4.93
2018-05-03T23:43:48.606Z,6.00
2018-05-03T23:46:20.503Z,5.00
2018-05-03T23:48:52.383Z,5.20
2018-05-03T23:51:24.266Z,5.50
2018-05-03T23:53:56.901Z,5.50
2018-05-03T23:56:28.789Z,5.27
2018-05-03T23:59:00.654Z,5.33
